Oscoda charter Township, MI

8:43 AM EDT on August 29, 2015 (GMT -0400)
3 Miles N. of Oscoda, along Lk. Huron | | Change Station
CLOSE
Current Station
Personal Weather Station
Location: Oscoda, MI
Elevation: 610 ft
Nearby Weather Stations

Elev 610 ft 44.47 °N, 83.32 °W | Updated 12 seconds ago

Overcast
Overcast
60.6 °F
Feels Like 60.6 °F
N
0.0
Wind Variable Wind from West
Gusts 0.0 mph

Today
High -- | Low -- °F
--% Chance of Precip.
Yesterday
High -- | Low -- °F
Precip. -- in
6:52 AM 8:15 PM
Full, 100% visible
Pressure 30.14 in
Visibility 10.0 miles
Clouds Overcast 10000 ft
Dew Point 55 °F
Humidity 82%
Rainfall 0.00 in
Snow Depth Not available.
UV 0 out of 12
Pollen 8.70 out of 12
Air Quality Not available.
Flu Activity Not available.
METAR KOSC 291233Z AUTO 26003KT 10SM OVC100 16/15 A3014 RMK AO2 T01620145
Pressure 30.14 in
Visibility 10.0 miles
Clouds Overcast 10000 ft
Dew Point 55 °F
Humidity 82%
Rainfall 0.00 in
Snow Depth Not available.
UV 0 out of 12
Pollen 8.70 out of 12
Air Quality Not available.
Flu Activity Not available.
METAR KOSC 291233Z AUTO 26003KT 10SM OVC100 16/15 A3014 RMK AO2 T01620145
Nowcast | as of 8:00 am EDT on August 29, 2015

At 9 am...occasional showers. Temperature 63. Light winds. At 11 am...occasional showers. Temperature 65. South winds 5 mph. At 1 PM...occasional showers. Temperature 67. South winds 7 mph. At 3 PM...cloudy. Scattered showers. Temperature 69. South winds 9 mph.

×

10-Day Weather Forecast

×

Almanac

Astronomy

Aug. 29, 2015 Rise Set
Actual Time
Civil Twilight
Nautical Twilight
Astronomical Twilight
Moon
Length of Visible Light
Length of Day
Tomorrow will be .
, % of the Moon is Illuminated

Today's Extremes

State Highs State Lows

Community

WunderPhotos

Upload Photos

1,850,677 photos uploaded!

WunderBlogs® & News

Nearby

Air Quality

  Air Quality AQ Index Pollutant
Not available.

Snow Depth

Station Depth Elevation

Earthquake Activity

City Distance Mag. Time & Date
Minimum magnitude displayed is 2.5.

Coastal Water Temperatures

Place Temperature

Stations

Nearby Weather Stations

Station Location Temp. Windchill Dew Point Humidity Wind Precip. Elev Updated Type